sensor_id;sensor_type;location;lat;lon;timestamp;pressure;altitude;pressure_sealevel;temperature;humidity
67840;BME280;54636;51.684;5.142;2023-12-29T00:00:39;100784.31;;;10.98;100.00
67840;BME280;54636;51.684;5.142;2023-12-29T00:03:05;100773.69;;;11.00;100.00
67840;BME280;54636;51.684;5.142;2023-12-29T00:05:30;100780.66;;;11.12;100.00
67840;BME280;54636;51.684;5.142;2023-12-29T00:07:55;100757.72;;;11.19;100.00
67840;BME280;54636;51.684;5.142;2023-12-29T00:10:21;100769.25;;;11.03;100.00
67840;BME280;54636;51.684;5.142;2023-12-29T00:12:46;100777.25;;;11.17;100.00
67840;BME280;54636;51.684;5.142;2023-12-29T00:15:11;100772.47;;;11.01;100.00
67840;BME280;54636;51.684;5.142;2023-12-29T00:17:37;100759.94;;;11.15;100.00
67840;BME280;54636;51.684;5.142;2023-12-29T00:20:03;100771.19;;;10.97;100.00
67840;BME280;54636;51.684;5.142;2023-12-29T00:22:29;100769.88;;;10.86;100.00
67840;BME280;54636;51.684;5.142;2023-12-29T00:24:54;100772.66;;;10.92;100.00
67840;BME280;54636;51.684;5.142;2023-12-29T00:27:19;100763.53;;;10.95;100.00
67840;BME280;54636;51.684;5.142;2023-12-29T00:29:45;100753.63;;;10.92;100.00
67840;BME280;54636;51.684;5.142;2023-12-29T00:32:10;100756.78;;;10.85;100.00
67840;BME280;54636;51.684;5.142;2023-12-29T00:34:35;100751.22;;;10.68;100.00
67840;BME280;54636;51.684;5.142;2023-12-29T00:37:02;100772.72;;;10.72;100.00
67840;BME280;54636;51.684;5.142;2023-12-29T00:39:27;100751.22;;;10.68;100.00
67840;BME280;54636;51.684;5.142;2023-12-29T00:41:56;100758.56;;;10.62;100.00
67840;BME280;54636;51.684;5.142;2023-12-29T00:44:22;100751.88;;;10.57;100.00
67840;BME280;54636;51.684;5.142;2023-12-29T00:46:47;100753.84;;;10.57;100.00
67840;BME280;54636;51.684;5.142;2023-12-29T00:49:18;100761.25;;;10.56;100.00
67840;BME280;54636;51.684;5.142;2023-12-29T00:51:43;100759.41;;;10.74;100.00
67840;BME280;54636;51.684;5.142;2023-12-29T00:54:09;100750.47;;;10.68;100.00
67840;BME280;54636;51.684;5.142;2023-12-29T00:56:34;100742.63;;;10.75;100.00
67840;BME280;54636;51.684;5.142;2023-12-29T00:58:59;100743.81;;;10.69;100.00
67840;BME280;54636;51.684;5.142;2023-12-29T01:01:24;100737.84;;;10.65;100.00
67840;BME280;54636;51.684;5.142;2023-12-29T01:03:50;100744.81;;;10.71;100.00
67840;BME280;54636;51.684;5.142;2023-12-29T01:06:19;100734.44;;;10.70;100.00
67840;BME280;54636;51.684;5.142;2023-12-29T01:08:44;100735.41;;;10.67;100.00
67840;BME280;54636;51.684;5.142;2023-12-29T01:11:09;100730.81;;;10.78;100.00
67840;BME280;54636;51.684;5.142;2023-12-29T01:13:35;100709.09;;;10.84;100.00
67840;BME280;54636;51.684;5.142;2023-12-29T01:16:00;100723.88;;;10.77;100.00
67840;BME280;54636;51.684;5.142;2023-12-29T01:18:26;100723.56;;;10.70;100.00
67840;BME280;54636;51.684;5.142;2023-12-29T01:20:51;100716.91;;;10.71;100.00
67840;BME280;54636;51.684;5.142;2023-12-29T01:23:16;100726.38;;;10.81;100.00
67840;BME280;54636;51.684;5.142;2023-12-29T01:25:43;100728.31;;;10.75;100.00
67840;BME280;54636;51.684;5.142;2023-12-29T01:28:08;100741.84;;;10.69;100.00
67840;BME280;54636;51.684;5.142;2023-12-29T01:30:33;100731.25;;;10.71;100.00
67840;BME280;54636;51.684;5.142;2023-12-29T01:32:58;100732.19;;;10.68;100.00
67840;BME280;54636;51.684;5.142;2023-12-29T01:35:24;100745.22;;;10.59;100.00
67840;BME280;54636;51.684;5.142;2023-12-29T01:37:49;100740.00;;;10.55;100.00
67840;BME280;54636;51.684;5.142;2023-12-29T01:40:14;100742.66;;;10.49;100.00
67840;BME280;54636;51.684;5.142;2023-12-29T01:42:41;100741.88;;;10.43;100.00
67840;BME280;54636;51.684;5.142;2023-12-29T01:45:06;100730.50;;;10.39;100.00
67840;BME280;54636;51.684;5.142;2023-12-29T01:47:41;100726.31;;;10.44;100.00
67840;BME280;54636;51.684;5.142;2023-12-29T01:50:06;100725.56;;;10.38;100.00
67840;BME280;54636;51.684;5.142;2023-12-29T01:52:31;100718.44;;;10.46;100.00
67840;BME280;54636;51.684;5.142;2023-12-29T01:54:57;100716.25;;;10.50;100.00
67840;BME280;54636;51.684;5.142;2023-12-29T01:57:23;100712.31;;;10.51;100.00
67840;BME280;54636;51.684;5.142;2023-12-29T01:59:48;100738.47;;;10.48;100.00
67840;BME280;54636;51.684;5.142;2023-12-29T02:02:14;100738.88;;;10.41;100.00
67840;BME280;54636;51.684;5.142;2023-12-29T02:04:40;100741.38;;;10.39;100.00
67840;BME280;54636;51.684;5.142;2023-12-29T02:07:06;100749.25;;;10.37;100.00
67840;BME280;54636;51.684;5.142;2023-12-29T02:09:31;100749.72;;;10.36;100.00
67840;BME280;54636;51.684;5.142;2023-12-29T02:11:58;100738.69;;;10.45;100.00
67840;BME280;54636;51.684;5.142;2023-12-29T02:14:24;100734.19;;;10.36;100.00
67840;BME280;54636;51.684;5.142;2023-12-29T02:16:58;100731.50;;;10.42;100.00
67840;BME280;54636;51.684;5.142;2023-12-29T02:19:40;100734.47;;;10.44;100.00
67840;BME280;54636;51.684;5.142;2023-12-29T02:22:07;100725.38;;;10.47;100.00
67840;BME280;54636;51.684;5.142;2023-12-29T02:24:33;100739.88;;;10.38;100.00
67840;BME280;54636;51.684;5.142;2023-12-29T02:27:03;100727.06;;;10.39;100.00
67840;BME280;54636;51.684;5.142;2023-12-29T02:29:31;100733.44;;;10.36;100.00
67840;BME280;54636;51.684;5.142;2023-12-29T02:31:58;100717.41;;;10.38;100.00
67840;BME280;54636;51.684;5.142;2023-12-29T02:34:24;100735.63;;;10.32;100.00
67840;BME280;54636;51.684;5.142;2023-12-29T02:36:50;100727.75;;;10.34;100.00
67840;BME280;54636;51.684;5.142;2023-12-29T02:39:16;100723.50;;;10.27;100.00
67840;BME280;54636;51.684;5.142;2023-12-29T02:41:41;100732.59;;;10.55;100.00
67840;BME280;54636;51.684;5.142;2023-12-29T02:44:07;100738.25;;;10.52;100.00
67840;BME280;54636;51.684;5.142;2023-12-29T02:46:32;100742.72;;;10.55;100.00
67840;BME280;54636;51.684;5.142;2023-12-29T02:48:57;100737.03;;;10.53;100.00
67840;BME280;54636;51.684;5.142;2023-12-29T02:51:24;100742.06;;;10.66;100.00
67840;BME280;54636;51.684;5.142;2023-12-29T02:53:49;100724.59;;;10.72;100.00
67840;BME280;54636;51.684;5.142;2023-12-29T02:56:15;100728.97;;;10.64;100.00
67840;BME280;54636;51.684;5.142;2023-12-29T02:58:40;100722.03;;;10.63;100.00
67840;BME280;54636;51.684;5.142;2023-12-29T03:01:05;100728.22;;;10.64;100.00
67840;BME280;54636;51.684;5.142;2023-12-29T03:03:30;100728.44;;;10.60;100.00
67840;BME280;54636;51.684;5.142;2023-12-29T03:05:56;100712.63;;;10.59;100.00
67840;BME280;54636;51.684;5.142;2023-12-29T03:08:21;100701.31;;;10.66;100.00
67840;BME280;54636;51.684;5.142;2023-12-29T03:10:46;100706.44;;;10.58;100.00
67840;BME280;54636;51.684;5.142;2023-12-29T03:13:12;100715.03;;;10.51;100.00
67840;BME280;54636;51.684;5.142;2023-12-29T03:15:37;100721.25;;;10.57;100.00
67840;BME280;54636;51.684;5.142;2023-12-29T03:18:02;100713.75;;;10.46;100.00
67840;BME280;54636;51.684;5.142;2023-12-29T03:20:28;100720.47;;;10.51;100.00
67840;BME280;54636;51.684;5.142;2023-12-29T03:22:53;100722.97;;;10.54;100.00
67840;BME280;54636;51.684;5.142;2023-12-29T03:25:20;100717.69;;;10.45;100.00
67840;BME280;54636;51.684;5.142;2023-12-29T03:27:45;100688.09;;;10.47;100.00
67840;BME280;54636;51.684;5.142;2023-12-29T03:30:10;100717.97;;;10.47;100.00
67840;BME280;54636;51.684;5.142;2023-12-29T03:32:36;100723.91;;;10.51;100.00
67840;BME280;54636;51.684;5.142;2023-12-29T03:35:01;100719.00;;;10.55;100.00
67840;BME280;54636;51.684;5.142;2023-12-29T03:37:26;100736.84;;;10.62;100.00
67840;BME280;54636;51.684;5.142;2023-12-29T03:39:51;100718.50;;;10.51;100.00
67840;BME280;54636;51.684;5.142;2023-12-29T03:42:17;100714.84;;;10.60;100.00
67840;BME280;54636;51.684;5.142;2023-12-29T03:44:42;100719.06;;;10.61;100.00
67840;BME280;54636;51.684;5.142;2023-12-29T03:47:07;100722.00;;;10.57;100.00
67840;BME280;54636;51.684;5.142;2023-12-29T03:49:33;100711.66;;;10.62;100.00
67840;BME280;54636;51.684;5.142;2023-12-29T03:51:59;100704.81;;;10.72;100.00
67840;BME280;54636;51.684;5.142;2023-12-29T03:54:24;100711.47;;;10.71;100.00
67840;BME280;54636;51.684;5.142;2023-12-29T03:56:49;100705.31;;;10.70;100.00
67840;BME280;54636;51.684;5.142;2023-12-29T03:59:14;100707.06;;;10.73;100.00
67840;BME280;54636;51.684;5.142;2023-12-29T04:01:40;100704.16;;;10.82;100.00
67840;BME280;54636;51.684;5.142;2023-12-29T04:04:05;100710.50;;;10.74;100.00
67840;BME280;54636;51.684;5.142;2023-12-29T04:06:30;100723.56;;;10.70;100.00
67840;BME280;54636;51.684;5.142;2023-12-29T04:08:56;100713.00;;;10.77;100.00
67840;BME280;54636;51.684;5.142;2023-12-29T04:11:21;100694.19;;;10.68;100.00
67840;BME280;54636;51.684;5.142;2023-12-29T04:13:46;100701.31;;;10.66;100.00
67840;BME280;54636;51.684;5.142;2023-12-29T04:16:11;100713.09;;;10.57;100.00
67840;BME280;54636;51.684;5.142;2023-12-29T04:18:37;100719.53;;;10.60;100.00
67840;BME280;54636;51.684;5.142;2023-12-29T04:21:02;100716.81;;;10.60;100.00
67840;BME280;54636;51.684;5.142;2023-12-29T04:23:27;100702.53;;;10.65;100.00
67840;BME280;54636;51.684;5.142;2023-12-29T04:25:53;100706.50;;;10.64;100.00
67840;BME280;54636;51.684;5.142;2023-12-29T04:28:18;100698.25;;;10.52;100.00
67840;BME280;54636;51.684;5.142;2023-12-29T04:30:43;100716.16;;;10.70;100.00
67840;BME280;54636;51.684;5.142;2023-12-29T04:33:09;100723.72;;;10.55;100.00
67840;BME280;54636;51.684;5.142;2023-12-29T04:35:34;100701.59;;;10.68;100.00
67840;BME280;54636;51.684;5.142;2023-12-29T04:37:59;100725.47;;;10.58;100.00
67840;BME280;54636;51.684;5.142;2023-12-29T04:40:24;100727.28;;;10.41;100.00
67840;BME280;54636;51.684;5.142;2023-12-29T04:42:50;100715.19;;;10.42;100.00
67840;BME280;54636;51.684;5.142;2023-12-29T04:45:15;100714.72;;;10.43;100.00
67840;BME280;54636;51.684;5.142;2023-12-29T04:47:40;100719.59;;;10.34;100.00
67840;BME280;54636;51.684;5.142;2023-12-29T04:50:06;100723.50;;;10.27;100.00
67840;BME280;54636;51.684;5.142;2023-12-29T04:52:31;100724.44;;;10.24;100.00
67840;BME280;54636;51.684;5.142;2023-12-29T04:54:56;100725.66;;;10.23;100.00
67840;BME280;54636;51.684;5.142;2023-12-29T04:57:22;100717.94;;;10.16;100.00
67840;BME280;54636;51.684;5.142;2023-12-29T04:59:47;100715.78;;;10.20;100.00
67840;BME280;54636;51.684;5.142;2023-12-29T05:02:13;100710.63;;;10.02;100.00
67840;BME280;54636;51.684;5.142;2023-12-29T05:04:38;100708.66;;;10.02;100.00
67840;BME280;54636;51.684;5.142;2023-12-29T05:07:05;100721.69;;;9.98;100.00
67840;BME280;54636;51.684;5.142;2023-12-29T05:09:30;100714.34;;;10.04;100.00
67840;BME280;54636;51.684;5.142;2023-12-29T05:11:55;100710.09;;;9.98;100.00
67840;BME280;54636;51.684;5.142;2023-12-29T05:14:21;100708.66;;;10.02;100.00
67840;BME280;54636;51.684;5.142;2023-12-29T05:16:46;100717.91;;;9.90;100.00
67840;BME280;54636;51.684;5.142;2023-12-29T05:19:11;100711.78;;;9.95;100.00
67840;BME280;54636;51.684;5.142;2023-12-29T05:21:36;100718.78;;;10.02;100.00
67840;BME280;54636;51.684;5.142;2023-12-29T05:24:02;100727.06;;;9.93;100.00
67840;BME280;54636;51.684;5.142;2023-12-29T05:26:29;100726.84;;;9.96;100.00
67840;BME280;54636;51.684;5.142;2023-12-29T05:28:54;100727.38;;;10.00;100.00
67840;BME280;54636;51.684;5.142;2023-12-29T05:31:19;100726.69;;;10.05;100.00
67840;BME280;54636;51.684;5.142;2023-12-29T05:33:44;100720.16;;;10.17;100.00
67840;BME280;54636;51.684;5.142;2023-12-29T05:36:10;100708.97;;;10.10;100.00
67840;BME280;54636;51.684;5.142;2023-12-29T05:38:36;100693.97;;;10.14;100.00
67840;BME280;54636;51.684;5.142;2023-12-29T05:41:01;100715.72;;;9.94;100.00
67840;BME280;54636;51.684;5.142;2023-12-29T05:43:28;100708.34;;;9.95;100.00
67840;BME280;54636;51.684;5.142;2023-12-29T05:45:53;100707.47;;;9.83;100.00
67840;BME280;54636;51.684;5.142;2023-12-29T05:48:19;100694.91;;;9.85;100.00
67840;BME280;54636;51.684;5.142;2023-12-29T05:50:44;100698.84;;;9.84;100.00
67840;BME280;54636;51.684;5.142;2023-12-29T05:53:09;100703.22;;;9.76;100.00
67840;BME280;54636;51.684;5.142;2023-12-29T05:55:35;100696.25;;;9.70;100.00
67840;BME280;54636;51.684;5.142;2023-12-29T05:58:01;100700.19;;;9.69;100.00
67840;BME280;54636;51.684;5.142;2023-12-29T06:00:26;100702.44;;;9.70;100.00
67840;BME280;54636;51.684;5.142;2023-12-29T06:02:51;100696.47;;;9.66;100.00
67840;BME280;54636;51.684;5.142;2023-12-29T06:05:16;100713.31;;;9.76;100.00
67840;BME280;54636;51.684;5.142;2023-12-29T06:07:42;100720.34;;;9.88;100.00
67840;BME280;54636;51.684;5.142;2023-12-29T06:10:07;100710.84;;;9.98;100.00
67840;BME280;54636;51.684;5.142;2023-12-29T06:12:34;100715.38;;;10.07;100.00
67840;BME280;54636;51.684;5.142;2023-12-29T06:14:59;100700.09;;;10.09;100.00
67840;BME280;54636;51.684;5.142;2023-12-29T06:17:24;100716.31;;;10.04;100.00
67840;BME280;54636;51.684;5.142;2023-12-29T06:19:50;100719.03;;;10.04;100.00
67840;BME280;54636;51.684;5.142;2023-12-29T06:22:15;100720.84;;;10.12;100.00
67840;BME280;54636;51.684;5.142;2023-12-29T06:24:40;100717.00;;;9.99;100.00
67840;BME280;54636;51.684;5.142;2023-12-29T06:27:09;100719.66;;;9.93;100.00
67840;BME280;54636;51.684;5.142;2023-12-29T06:29:35;100703.38;;;9.67;100.00
67840;BME280;54636;51.684;5.142;2023-12-29T06:32:00;100706.22;;;9.58;100.00
67840;BME280;54636;51.684;5.142;2023-12-29T06:34:26;100710.63;;;9.55;100.00
67840;BME280;54636;51.684;5.142;2023-12-29T06:36:51;100717.69;;;9.47;100.00
67840;BME280;54636;51.684;5.142;2023-12-29T06:39:16;100712.34;;;9.53;100.00
67840;BME280;54636;51.684;5.142;2023-12-29T06:41:42;100721.47;;;9.55;100.00
67840;BME280;54636;51.684;5.142;2023-12-29T06:44:07;100716.66;;;9.45;100.00
67840;BME280;54636;51.684;5.142;2023-12-29T06:46:32;100712.94;;;9.42;100.00
67840;BME280;54636;51.684;5.142;2023-12-29T06:48:58;100712.47;;;9.44;100.00
67840;BME280;54636;51.684;5.142;2023-12-29T06:51:23;100696.00;;;9.47;100.00
67840;BME280;54636;51.684;5.142;2023-12-29T06:53:48;100686.38;;;9.46;100.00
67840;BME280;54636;51.684;5.142;2023-12-29T06:56:16;100693.50;;;9.44;100.00
67840;BME280;54636;51.684;5.142;2023-12-29T06:58:43;100698.72;;;9.47;100.00
67840;BME280;54636;51.684;5.142;2023-12-29T07:01:08;100698.44;;;9.45;100.00
67840;BME280;54636;51.684;5.142;2023-12-29T07:03:34;100677.09;;;9.53;100.00
67840;BME280;54636;51.684;5.142;2023-12-29T07:06:02;100682.97;;;9.51;100.00
67840;BME280;54636;51.684;5.142;2023-12-29T07:08:28;100680.28;;;9.51;100.00
67840;BME280;54636;51.684;5.142;2023-12-29T07:10:53;100673.28;;;9.45;100.00
67840;BME280;54636;51.684;5.142;2023-12-29T07:13:19;100679.84;;;9.58;100.00
67840;BME280;54636;51.684;5.142;2023-12-29T07:15:47;100692.13;;;9.54;100.00
67840;BME280;54636;51.684;5.142;2023-12-29T07:18:13;100694.50;;;9.67;100.00
67840;BME280;54636;51.684;5.142;2023-12-29T07:20:38;100694.91;;;9.60;100.00
67840;BME280;54636;51.684;5.142;2023-12-29T07:23:03;100698.44;;;9.66;100.00
67840;BME280;54636;51.684;5.142;2023-12-29T07:25:29;100697.78;;;9.76;100.00
67840;BME280;54636;51.684;5.142;2023-12-29T07:27:54;100699.00;;;9.75;100.00
67840;BME280;54636;51.684;5.142;2023-12-29T07:30:19;100687.91;;;9.73;100.00
67840;BME280;54636;51.684;5.142;2023-12-29T07:32:44;100699.75;;;9.76;100.00
67840;BME280;54636;51.684;5.142;2023-12-29T07:35:10;100703.94;;;9.77;100.00
67840;BME280;54636;51.684;5.142;2023-12-29T07:37:35;100693.38;;;9.79;100.00
67840;BME280;54636;51.684;5.142;2023-12-29T07:40:00;100708.22;;;9.83;100.00
67840;BME280;54636;51.684;5.142;2023-12-29T07:42:26;100712.56;;;9.75;100.00
67840;BME280;54636;51.684;5.142;2023-12-29T07:44:51;100701.47;;;9.73;100.00
67840;BME280;54636;51.684;5.142;2023-12-29T07:47:17;100705.72;;;9.80;100.00
67840;BME280;54636;51.684;5.142;2023-12-29T07:49:42;100709.50;;;9.88;100.00
67840;BME280;54636;51.684;5.142;2023-12-29T07:52:07;100704.34;;;9.90;100.00
67840;BME280;54636;51.684;5.142;2023-12-29T07:54:33;100698.84;;;9.84;100.00
67840;BME280;54636;51.684;5.142;2023-12-29T07:56:58;100701.78;;;9.81;100.00
67840;BME280;54636;51.684;5.142;2023-12-29T07:59:23;100703.25;;;9.82;100.00
67840;BME280;54636;51.684;5.142;2023-12-29T08:01:49;100688.00;;;9.84;100.00
67840;BME280;54636;51.684;5.142;2023-12-29T08:04:14;100672.25;;;9.88;100.00
67840;BME280;54636;51.684;5.142;2023-12-29T08:06:39;100682.69;;;9.96;100.00
67840;BME280;54636;51.684;5.142;2023-12-29T08:09:04;100684.97;;;10.03;100.00
67840;BME280;54636;51.684;5.142;2023-12-29T08:11:30;100691.84;;;9.98;100.00
67840;BME280;54636;51.684;5.142;2023-12-29T08:13:55;100691.16;;;10.03;100.00
67840;BME280;54636;51.684;5.142;2023-12-29T08:16:21;100698.16;;;9.89;100.00
67840;BME280;54636;51.684;5.142;2023-12-29T08:18:46;100702.91;;;9.95;100.00
67840;BME280;54636;51.684;5.142;2023-12-29T08:21:19;100712.06;;;9.97;100.00
67840;BME280;54636;51.684;5.142;2023-12-29T08:23:47;100728.13;;;10.01;100.00
67840;BME280;54636;51.684;5.142;2023-12-29T08:26:13;100703.69;;;10.21;100.00
67840;BME280;54636;51.684;5.142;2023-12-29T08:30:26;100716.59;;;10.06;100.00
67840;BME280;54636;51.684;5.142;2023-12-29T08:32:51;100716.53;;;10.00;100.00
67840;BME280;54636;51.684;5.142;2023-12-29T08:35:17;100711.31;;;9.97;100.00
67840;BME280;54636;51.684;5.142;2023-12-29T08:37:42;100703.19;;;9.97;100.00
67840;BME280;54636;51.684;5.142;2023-12-29T08:40:08;100703.50;;;10.04;100.00
67840;BME280;54636;51.684;5.142;2023-12-29T08:42:33;100703.72;;;10.01;100.00
67840;BME280;54636;51.684;5.142;2023-12-29T08:44:59;100718.81;;;10.07;100.00
67840;BME280;54636;51.684;5.142;2023-12-29T08:47:25;100706.00;;;10.08;100.00
67840;BME280;54636;51.684;5.142;2023-12-29T08:49:50;100715.63;;;10.09;100.00
67840;BME280;54636;51.684;5.142;2023-12-29T08:52:16;100718.63;;;10.11;100.00
67840;BME280;54636;51.684;5.142;2023-12-29T08:54:41;100718.28;;;10.23;100.00
67840;BME280;54636;51.684;5.142;2023-12-29T08:57:07;100729.78;;;10.18;100.00
67840;BME280;54636;51.684;5.142;2023-12-29T08:59:33;100729.75;;;10.13;100.00
67840;BME280;54636;51.684;5.142;2023-12-29T09:01:58;100708.06;;;10.18;100.00
67840;BME280;54636;51.684;5.142;2023-12-29T09:04:25;100701.47;;;10.19;100.00
67840;BME280;54636;51.684;5.142;2023-12-29T09:06:51;100709.31;;;10.17;100.00
67840;BME280;54636;51.684;5.142;2023-12-29T09:09:16;100715.97;;;10.16;100.00
67840;BME280;54636;51.684;5.142;2023-12-29T09:11:42;100711.75;;;10.15;100.00
67840;BME280;54636;51.684;5.142;2023-12-29T09:14:08;100718.94;;;10.18;100.00
67840;BME280;54636;51.684;5.142;2023-12-29T09:16:35;100721.13;;;10.14;100.00
67840;BME280;54636;51.684;5.142;2023-12-29T09:19:00;100720.78;;;10.07;100.00
67840;BME280;54636;51.684;5.142;2023-12-29T09:21:26;100714.53;;;10.21;100.00
67840;BME280;54636;51.684;5.142;2023-12-29T09:23:51;100719.50;;;10.22;100.00
67840;BME280;54636;51.684;5.142;2023-12-29T09:26:17;100710.00;;;10.12;100.00
67840;BME280;54636;51.684;5.142;2023-12-29T09:28:43;100730.63;;;10.25;100.00
67840;BME280;54636;51.684;5.142;2023-12-29T09:31:11;100740.94;;;10.20;100.00
67840;BME280;54636;51.684;5.142;2023-12-29T09:33:37;100731.31;;;10.19;100.00
67840;BME280;54636;51.684;5.142;2023-12-29T09:36:03;100725.09;;;10.19;100.00
67840;BME280;54636;51.684;5.142;2023-12-29T09:38:29;100721.94;;;10.20;100.00
67840;BME280;54636;51.684;5.142;2023-12-29T09:40:59;100733.59;;;10.27;100.00
67840;BME280;54636;51.684;5.142;2023-12-29T09:43:31;100734.19;;;10.36;100.00
67840;BME280;54636;51.684;5.142;2023-12-29T09:45:58;100739.63;;;10.36;100.00
67840;BME280;54636;51.684;5.142;2023-12-29T09:48:26;100742.53;;;10.33;100.00
67840;BME280;54636;51.684;5.142;2023-12-29T09:50:52;100748.25;;;10.35;100.00
67840;BME280;54636;51.684;5.142;2023-12-29T09:53:22;100751.16;;;10.31;100.00
67840;BME280;54636;51.684;5.142;2023-12-29T09:55:49;100734.59;;;10.29;100.00
67840;BME280;54636;51.684;5.142;2023-12-29T09:58:15;100761.13;;;10.40;100.00
67840;BME280;54636;51.684;5.142;2023-12-29T10:00:42;100768.28;;;10.43;100.00
67840;BME280;54636;51.684;5.142;2023-12-29T10:03:08;100766.31;;;10.43;100.00
67840;BME280;54636;51.684;5.142;2023-12-29T10:05:33;100759.81;;;10.61;100.00
67840;BME280;54636;51.684;5.142;2023-12-29T10:08:02;100762.00;;;10.57;100.00
67840;BME280;54636;51.684;5.142;2023-12-29T10:10:30;100764.88;;;10.48;100.00
67840;BME280;54636;51.684;5.142;2023-12-29T10:12:57;100767.22;;;10.61;100.00
67840;BME280;54636;51.684;5.142;2023-12-29T10:15:47;100773.16;;;10.65;100.00
67840;BME280;54636;51.684;5.142;2023-12-29T10:18:21;100788.47;;;10.62;100.00
67840;BME280;54636;51.684;5.142;2023-12-29T10:20:58;100786.00;;;10.64;100.00
67840;BME280;54636;51.684;5.142;2023-12-29T10:24:03;100777.91;;;10.70;100.00
67840;BME280;54636;51.684;5.142;2023-12-29T10:26:28;100778.91;;;10.72;100.00
67840;BME280;54636;51.684;5.142;2023-12-29T10:28:54;100767.66;;;10.85;100.00
67840;BME280;54636;51.684;5.142;2023-12-29T10:31:20;100782.94;;;10.82;100.00
67840;BME280;54636;51.684;5.142;2023-12-29T10:33:45;100790.41;;;10.87;100.00
67840;BME280;54636;51.684;5.142;2023-12-29T10:36:15;100801.56;;;10.95;100.00
67840;BME280;54636;51.684;5.142;2023-12-29T10:38:41;100805.56;;;11.00;100.00
67840;BME280;54636;51.684;5.142;2023-12-29T10:41:17;100800.09;;;10.94;100.00
67840;BME280;54636;51.684;5.142;2023-12-29T10:43:44;100810.25;;;10.99;100.00
67840;BME280;54636;51.684;5.142;2023-12-29T10:46:12;100805.53;;;10.94;100.00
67840;BME280;54636;51.684;5.142;2023-12-29T10:48:38;100804.28;;;10.95;100.00
67840;BME280;54636;51.684;5.142;2023-12-29T10:51:05;100799.16;;;11.03;100.00
67840;BME280;54636;51.684;5.142;2023-12-29T10:53:35;100799.16;;;11.03;100.00
67840;BME280;54636;51.684;5.142;2023-12-29T10:56:01;100801.41;;;11.10;100.00
67840;BME280;54636;51.684;5.142;2023-12-29T10:58:27;100796.31;;;11.23;100.00
67840;BME280;54636;51.684;5.142;2023-12-29T11:00:58;100790.88;;;11.23;100.00
67840;BME280;54636;51.684;5.142;2023-12-29T11:03:23;100795.59;;;11.28;100.00
67840;BME280;54636;51.684;5.142;2023-12-29T11:05:50;100788.19;;;11.29;100.00
67840;BME280;54636;51.684;5.142;2023-12-29T11:08:20;100797.63;;;11.33;100.00
67840;BME280;54636;51.684;5.142;2023-12-29T11:10:49;100799.31;;;11.31;100.00
67840;BME280;54636;51.684;5.142;2023-12-29T11:13:15;100788.25;;;11.40;100.00
67840;BME280;54636;51.684;5.142;2023-12-29T11:15:44;100799.44;;;11.47;100.00
67840;BME280;54636;51.684;5.142;2023-12-29T11:18:15;100779.34;;;11.39;100.00
67840;BME280;54636;51.684;5.142;2023-12-29T11:20:42;100787.25;;;11.37;100.00
67840;BME280;54636;51.684;5.142;2023-12-29T11:23:09;100779.59;;;11.36;100.00
67840;BME280;54636;51.684;5.142;2023-12-29T11:25:35;100775.84;;;11.33;100.00
67840;BME280;54636;51.684;5.142;2023-12-29T11:28:00;100788.44;;;11.31;100.00
67840;BME280;54636;51.684;5.142;2023-12-29T11:30:27;100784.50;;;11.32;100.00
67840;BME280;54636;51.684;5.142;2023-12-29T11:33:03;100787.97;;;11.32;100.00
67840;BME280;54636;51.684;5.142;2023-12-29T11:40:43;100782.03;;;11.34;100.00
67840;BME280;54636;51.684;5.142;2023-12-29T11:43:14;100781.59;;;11.41;100.00
67840;BME280;54636;51.684;5.142;2023-12-29T11:45:41;100772.19;;;11.42;100.00
67840;BME280;54636;51.684;5.142;2023-12-29T11:48:07;100775.41;;;11.40;100.00
67840;BME280;54636;51.684;5.142;2023-12-29T11:50:34;100780.38;;;11.47;100.00
67840;BME280;54636;51.684;5.142;2023-12-29T11:53:02;100772.75;;;11.51;100.00
67840;BME280;54636;51.684;5.142;2023-12-29T11:55:29;100764.81;;;11.48;100.00
67840;BME280;54636;51.684;5.142;2023-12-29T11:57:55;100770.00;;;11.46;100.00
67840;BME280;54636;51.684;5.142;2023-12-29T12:00:20;100772.97;;;11.48;100.00
67840;BME280;54636;51.684;5.142;2023-12-29T12:02:46;100770.03;;;11.51;100.00
67840;BME280;54636;51.684;5.142;2023-12-29T12:05:46;100755.91;;;11.47;100.00
67840;BME280;54636;51.684;5.142;2023-12-29T12:08:29;100762.84;;;11.48;100.00
67840;BME280;54636;51.684;5.142;2023-12-29T12:10:56;100751.66;;;11.41;100.00
67840;BME280;54636;51.684;5.142;2023-12-29T12:13:44;100758.59;;;11.42;100.00
67840;BME280;54636;51.684;5.142;2023-12-29T12:19:08;100752.66;;;11.38;100.00
67840;BME280;54636;51.684;5.142;2023-12-29T12:21:34;100752.38;;;11.36;100.00
67840;BME280;54636;51.684;5.142;2023-12-29T12:24:01;100753.41;;;11.44;100.00
67840;BME280;54636;51.684;5.142;2023-12-29T12:26:30;100744.03;;;11.45;100.00
67840;BME280;54636;51.684;5.142;2023-12-29T12:28:56;100746.75;;;11.45;100.00
67840;BME280;54636;51.684;5.142;2023-12-29T12:31:21;100739.81;;;11.44;100.00
67840;BME280;54636;51.684;5.142;2023-12-29T12:33:56;100736.88;;;11.47;100.00
67840;BME280;54636;51.684;5.142;2023-12-29T12:36:23;100734.13;;;11.42;100.00
67840;BME280;54636;51.684;5.142;2023-12-29T12:38:55;100734.88;;;11.42;100.00
67840;BME280;54636;51.684;5.142;2023-12-29T12:41:22;100730.19;;;11.43;100.00
67840;BME280;54636;51.684;5.142;2023-12-29T12:44:11;100737.13;;;11.49;100.00
67840;BME280;54636;51.684;5.142;2023-12-29T12:46:58;100720.75;;;11.38;100.00
67840;BME280;54636;51.684;5.142;2023-12-29T12:49:24;100739.03;;;11.32;100.00